createdAt,value
2024-03-15T00:00:29.610Z,709.00
2024-03-15T00:01:29.667Z,705.00
2024-03-15T00:02:29.738Z,705.00
2024-03-15T00:03:29.902Z,714.00
2024-03-15T00:04:29.865Z,709.00
2024-03-15T00:05:29.958Z,716.00
2024-03-15T00:06:30.044Z,702.00
2024-03-15T00:07:30.047Z,711.00
2024-03-15T00:08:30.118Z,702.00
2024-03-15T00:09:30.210Z,698.00
2024-03-15T00:10:30.266Z,698.00
2024-03-15T00:11:30.327Z,708.00
2024-03-15T00:12:30.446Z,699.00
2024-03-15T00:13:30.479Z,702.00
2024-03-15T00:14:30.512Z,706.00
2024-03-15T00:15:30.576Z,699.00
2024-03-15T00:16:30.635Z,699.00
2024-03-15T00:17:30.708Z,698.00
2024-03-15T00:18:30.798Z,706.00
2024-03-15T00:19:30.855Z,702.00
2024-03-15T00:20:30.954Z,695.00
2024-03-15T00:21:30.997Z,698.00
2024-03-15T00:22:31.016Z,699.00
2024-03-15T00:23:31.083Z,698.00
2024-03-15T00:24:31.244Z,702.00
2024-03-15T00:25:31.190Z,709.00
2024-03-15T00:26:32.700Z,704.00
2024-03-15T00:27:31.390Z,697.00
2024-03-15T00:28:31.402Z,704.00
2024-03-15T00:29:31.477Z,700.00
2024-03-15T00:30:31.617Z,698.00
2024-03-15T00:31:31.613Z,686.00
2024-03-15T00:32:31.693Z,691.00
2024-03-15T00:33:31.770Z,701.00
2024-03-15T00:34:31.836Z,698.00
2024-03-15T00:35:31.856Z,697.00
2024-03-15T00:36:32.002Z,691.00
2024-03-15T00:37:32.010Z,698.00
2024-03-15T00:38:32.025Z,681.00
2024-03-15T00:39:32.172Z,697.00
2024-03-15T00:40:32.165Z,692.00
2024-03-15T00:41:32.225Z,690.00
2024-03-15T00:42:32.290Z,682.00
2024-03-15T00:43:32.308Z,691.00
2024-03-15T00:44:32.429Z,687.00
2024-03-15T00:45:32.521Z,686.00
2024-03-15T00:46:32.510Z,688.00
2024-03-15T00:47:32.652Z,694.00
2024-03-15T00:48:32.734Z,691.00
2024-03-15T00:49:32.726Z,692.00
2024-03-15T00:50:32.789Z,682.00
2024-03-15T00:51:32.897Z,696.00
2024-03-15T00:52:32.892Z,691.00
2024-03-15T00:53:32.945Z,684.00
2024-03-15T00:54:33.093Z,693.00
2024-03-15T00:55:33.092Z,684.00
2024-03-15T00:56:33.150Z,691.00
2024-03-15T00:57:33.235Z,679.00
2024-03-15T00:58:33.248Z,686.00
2024-03-15T00:59:33.302Z,688.00
2024-03-15T01:00:33.405Z,685.00
2024-03-15T01:01:33.514Z,691.00
2024-03-15T01:02:34.004Z,680.00
2024-03-15T01:03:33.652Z,675.00
2024-03-15T01:04:33.636Z,679.00
2024-03-15T01:05:33.720Z,689.00
2024-03-15T01:06:33.846Z,681.00
2024-03-15T01:07:33.858Z,684.00
2024-03-15T01:08:33.918Z,690.00
2024-03-15T01:09:34.030Z,683.00
2024-03-15T01:10:34.040Z,692.00
2024-03-15T01:11:34.158Z,689.00
2024-03-15T01:12:34.162Z,694.00
2024-03-15T01:13:34.215Z,684.00
2024-03-15T01:14:34.284Z,685.00
2024-03-15T01:15:34.404Z,684.00
2024-03-15T01:16:34.373Z,679.00
2024-03-15T01:17:34.484Z,682.00
2024-03-15T01:18:34.647Z,681.00
2024-03-15T01:19:34.563Z,683.00
2024-03-15T01:20:34.597Z,680.00
2024-03-15T01:21:34.686Z,674.00
2024-03-15T01:22:34.704Z,679.00
2024-03-15T01:23:34.771Z,674.00
2024-03-15T01:24:34.821Z,681.00
2024-03-15T01:25:34.850Z,671.00
2024-03-15T01:26:34.928Z,679.00
2024-03-15T01:27:35.098Z,682.00
2024-03-15T01:28:34.994Z,680.00
2024-03-15T01:29:35.068Z,673.00
2024-03-15T01:30:35.125Z,679.00
2024-03-15T01:31:35.170Z,676.00
2024-03-15T01:32:35.235Z,672.00
2024-03-15T01:33:35.288Z,677.00
2024-03-15T01:34:35.325Z,670.00
2024-03-15T01:35:35.347Z,675.00
2024-03-15T01:36:35.460Z,671.00
2024-03-15T01:37:35.442Z,676.00
2024-03-15T01:38:35.507Z,666.00
2024-03-15T01:39:35.596Z,667.00
2024-03-15T01:40:35.616Z,674.00
2024-03-15T01:41:35.656Z,678.00
2024-03-15T01:42:35.727Z,665.00
2024-03-15T01:43:35.775Z,668.00
2024-03-15T01:44:35.856Z,671.00
2024-03-15T01:45:35.990Z,678.00
2024-03-15T01:46:35.961Z,669.00
2024-03-15T01:47:36.084Z,678.00
2024-03-15T01:48:36.061Z,670.00
2024-03-15T01:49:36.103Z,673.00
2024-03-15T01:50:36.146Z,680.00
2024-03-15T01:51:36.285Z,671.00
2024-03-15T01:52:36.280Z,675.00
2024-03-15T01:53:37.359Z,666.00
2024-03-15T01:54:36.449Z,664.00
2024-03-15T01:55:36.434Z,682.00
2024-03-15T01:56:36.489Z,664.00
2024-03-15T01:57:36.596Z,665.00
2024-03-15T01:58:36.599Z,668.00
2024-03-15T01:59:36.659Z,674.00
2024-03-15T02:00:36.743Z,670.00
2024-03-15T02:01:36.803Z,666.00
2024-03-15T02:02:36.780Z,667.00
2024-03-15T02:03:36.856Z,663.00
2024-03-15T02:04:36.886Z,666.00
2024-03-15T02:05:36.921Z,664.00
2024-03-15T02:06:37.028Z,670.00
2024-03-15T02:07:37.012Z,665.00
2024-03-15T02:08:37.133Z,665.00
2024-03-15T02:09:37.151Z,669.00
2024-03-15T02:10:37.165Z,669.00
2024-03-15T02:11:37.242Z,663.00
2024-03-15T02:12:37.302Z,668.00
2024-03-15T02:13:37.314Z,666.00
2024-03-15T02:14:37.373Z,667.00
2024-03-15T02:15:37.497Z,670.00
2024-03-15T02:16:37.456Z,666.00
2024-03-15T02:17:37.564Z,661.00
2024-03-15T02:18:37.655Z,663.00
2024-03-15T02:19:37.665Z,664.00
2024-03-15T02:20:37.664Z,661.00
2024-03-15T02:21:37.751Z,665.00
2024-03-15T02:22:37.799Z,663.00
2024-03-15T02:23:37.843Z,664.00
2024-03-15T02:24:38.010Z,664.00
2024-03-15T02:25:37.958Z,663.00
2024-03-15T02:26:38.033Z,664.00
2024-03-15T02:27:38.175Z,664.00
2024-03-15T02:28:38.178Z,662.00
2024-03-15T02:29:38.221Z,661.00
2024-03-15T02:30:38.322Z,666.00
2024-03-15T02:31:38.340Z,660.00
2024-03-15T02:32:38.444Z,660.00
2024-03-15T02:33:38.457Z,662.00
2024-03-15T02:34:38.491Z,662.00
2024-03-15T02:35:38.567Z,661.00
2024-03-15T02:36:38.689Z,660.00
2024-03-15T02:37:38.694Z,664.00
2024-03-15T02:38:38.822Z,662.00
2024-03-15T02:39:38.838Z,664.00
2024-03-15T02:40:38.871Z,657.00
2024-03-15T02:41:38.923Z,660.00
2024-03-15T02:42:39.070Z,663.00
2024-03-15T02:43:39.072Z,661.00
2024-03-15T02:44:39.143Z,659.00
2024-03-15T02:45:39.214Z,659.00
2024-03-15T02:46:39.231Z,658.00
2024-03-15T02:47:39.297Z,660.00
2024-03-15T02:48:39.344Z,660.00
2024-03-15T02:49:39.399Z,657.00
2024-03-15T02:50:39.420Z,658.00
2024-03-15T02:51:39.551Z,655.00
2024-03-15T02:52:39.544Z,657.00
2024-03-15T02:53:39.612Z,661.00
2024-03-15T02:54:39.684Z,657.00
2024-03-15T02:55:39.741Z,656.00
2024-03-15T02:56:39.795Z,659.00
2024-03-15T02:57:39.866Z,659.00
2024-03-15T02:58:39.902Z,659.00
2024-03-15T02:59:39.986Z,655.00
2024-03-15T03:00:40.054Z,656.00
2024-03-15T03:01:40.126Z,660.00
2024-03-15T03:02:40.135Z,657.00
2024-03-15T03:03:40.258Z,659.00
2024-03-15T03:04:40.259Z,656.00
2024-03-15T03:05:40.331Z,658.00
2024-03-15T03:06:40.468Z,661.00
2024-03-15T03:07:40.479Z,657.00
2024-03-15T03:08:40.553Z,656.00
2024-03-15T03:09:40.606Z,657.00
2024-03-15T03:10:40.647Z,656.00
2024-03-15T03:11:40.708Z,654.00
2024-03-15T03:12:40.878Z,658.00
2024-03-15T03:13:40.894Z,655.00
2024-03-15T03:14:40.901Z,658.00
2024-03-15T03:15:40.970Z,655.00
2024-03-15T03:16:41.010Z,653.00
2024-03-15T03:17:41.092Z,656.00
2024-03-15T03:18:41.197Z,655.00
2024-03-15T03:19:41.178Z,653.00
2024-03-15T03:20:41.239Z,655.00
2024-03-15T03:21:41.327Z,655.00
2024-03-15T03:22:41.374Z,653.00
2024-03-15T03:23:41.406Z,654.00
2024-03-15T03:24:41.486Z,656.00
2024-03-15T03:25:41.514Z,655.00
2024-03-15T03:26:41.591Z,652.00
2024-03-15T03:27:41.679Z,655.00
2024-03-15T03:28:41.704Z,654.00
2024-03-15T03:29:41.756Z,654.00
2024-03-15T03:30:41.878Z,654.00
2024-03-15T03:31:41.859Z,655.00
2024-03-15T03:32:41.926Z,655.00
2024-03-15T03:33:42.063Z,655.00
2024-03-15T03:34:42.019Z,649.00
2024-03-15T03:35:42.096Z,650.00
2024-03-15T03:36:42.189Z,652.00
2024-03-15T03:37:42.220Z,654.00
2024-03-15T03:38:42.285Z,651.00
2024-03-15T03:39:42.359Z,651.00
2024-03-15T03:40:42.435Z,656.00
2024-03-15T03:41:42.469Z,652.00
2024-03-15T03:42:42.608Z,651.00
2024-03-15T03:43:42.620Z,648.00
2024-03-15T03:44:42.796Z,651.00
2024-03-15T03:45:43.109Z,652.00
2024-03-15T03:46:42.833Z,652.00
2024-03-15T03:47:42.884Z,655.00
2024-03-15T03:48:43.042Z,652.00
2024-03-15T03:49:43.009Z,650.00
2024-03-15T03:50:43.077Z,654.00
2024-03-15T03:51:43.249Z,654.00
2024-03-15T03:52:43.231Z,653.00
2024-03-15T03:53:43.541Z,651.00
2024-03-15T03:54:43.387Z,652.00
2024-03-15T03:55:43.424Z,647.00
2024-03-15T03:56:43.474Z,653.00
2024-03-15T03:57:45.745Z,645.00
2024-03-15T03:58:43.532Z,651.00
2024-03-15T03:59:43.532Z,653.00
2024-03-15T04:00:43.599Z,653.00
2024-03-15T04:01:43.580Z,651.00
2024-03-15T04:02:43.541Z,650.00
2024-03-15T04:03:43.646Z,652.00
2024-03-15T04:04:43.549Z,651.00
2024-03-15T04:05:43.562Z,649.00
2024-03-15T04:06:43.595Z,652.00
2024-03-15T04:07:43.553Z,649.00
2024-03-15T04:08:43.565Z,649.00
2024-03-15T04:09:43.682Z,650.00
2024-03-15T04:10:43.575Z,647.00
2024-03-15T04:11:43.580Z,649.00
2024-03-15T04:12:43.680Z,653.00
2024-03-15T04:13:43.601Z,648.00
2024-03-15T04:14:51.047Z,646.00
2024-03-15T04:15:44.640Z,646.00
2024-03-15T04:16:43.615Z,646.00
2024-03-15T04:17:43.595Z,647.00
2024-03-15T04:18:43.601Z,648.00
2024-03-15T04:19:43.621Z,652.00
2024-03-15T04:20:43.574Z,650.00
2024-03-15T04:21:43.970Z,648.00
2024-03-15T04:22:43.579Z,651.00
2024-03-15T04:23:43.632Z,650.00
2024-03-15T04:24:43.618Z,648.00
2024-03-15T04:25:43.592Z,644.00
2024-03-15T04:26:43.584Z,648.00
2024-03-15T04:27:43.687Z,643.00
2024-03-15T04:28:43.678Z,647.00
2024-03-15T04:29:43.732Z,646.00
2024-03-15T04:30:43.848Z,645.00
2024-03-15T04:31:43.797Z,646.00
2024-03-15T04:32:43.922Z,646.00
2024-03-15T04:33:43.901Z,646.00
2024-03-15T04:34:43.897Z,646.00
2024-03-15T04:35:43.940Z,642.00
2024-03-15T04:36:43.977Z,646.00
2024-03-15T04:37:44.006Z,643.00
2024-03-15T04:38:44.032Z,642.00
2024-03-15T04:39:44.050Z,643.00
2024-03-15T04:40:44.062Z,642.00
2024-03-15T04:41:44.074Z,644.00
2024-03-15T04:42:44.385Z,646.00
2024-03-15T04:43:44.097Z,644.00
2024-03-15T04:44:44.111Z,643.00
2024-03-15T04:45:44.166Z,642.00
2024-03-15T04:46:44.119Z,642.00
2024-03-15T04:47:44.188Z,644.00
2024-03-15T04:48:44.223Z,640.00
2024-03-15T04:49:44.164Z,642.00
2024-03-15T04:50:44.180Z,638.00
2024-03-15T04:51:44.230Z,645.00
2024-03-15T04:52:44.185Z,644.00
2024-03-15T04:53:51.880Z,600.00
2024-03-15T04:54:51.917Z,600.00
2024-03-15T04:55:51.906Z,600.00
2024-03-15T04:56:51.909Z,600.00
2024-03-15T04:57:52.389Z,600.00
2024-03-15T04:58:51.909Z,601.00
2024-03-15T04:59:51.887Z,603.00
2024-03-15T05:00:52.007Z,604.00
2024-03-15T05:01:51.971Z,602.00
2024-03-15T05:02:52.639Z,601.00
2024-03-15T05:03:51.953Z,606.00
2024-03-15T05:04:51.923Z,605.00
2024-03-15T05:05:51.895Z,601.00
2024-03-15T05:06:51.928Z,602.00
2024-03-15T05:07:51.897Z,605.00
2024-03-15T05:09:00.916Z,607.00
2024-03-15T05:09:52.974Z,608.00
2024-03-15T05:10:52.145Z,605.00
2024-03-15T05:11:51.953Z,608.00
2024-03-15T05:12:51.999Z,604.00
2024-03-15T05:13:51.935Z,605.00
2024-03-15T05:14:51.922Z,606.00
2024-03-15T05:15:51.986Z,601.00
2024-03-15T05:16:51.958Z,606.00
2024-03-15T05:17:52.007Z,601.00
2024-03-15T05:18:52.064Z,602.00
2024-03-15T05:19:52.072Z,602.00
2024-03-15T05:20:52.082Z,606.00
2024-03-15T05:21:52.162Z,604.00
2024-03-15T05:22:52.201Z,604.00
2024-03-15T05:23:52.267Z,603.00
2024-03-15T05:24:52.376Z,605.00
2024-03-15T05:25:52.397Z,605.00
2024-03-15T05:26:52.428Z,602.00
2024-03-15T05:27:52.584Z,605.00
2024-03-15T05:28:52.470Z,604.00
2024-03-15T05:29:52.490Z,604.00
2024-03-15T05:30:52.593Z,608.00
2024-03-15T05:31:52.558Z,605.00
2024-03-15T05:32:52.601Z,606.00
2024-03-15T05:33:52.709Z,606.00
2024-03-15T05:34:52.591Z,604.00
2024-03-15T05:35:52.617Z,603.00
2024-03-15T05:36:52.698Z,604.00
2024-03-15T05:37:52.658Z,606.00
2024-03-15T05:38:52.685Z,600.00
2024-03-15T05:39:52.760Z,607.00
2024-03-15T05:40:52.683Z,604.00
2024-03-15T05:41:52.668Z,603.00
2024-03-15T05:42:52.746Z,606.00
2024-03-15T05:43:52.690Z,603.00
2024-03-15T05:44:52.701Z,606.00
2024-03-15T05:45:52.812Z,604.00
2024-03-15T05:46:52.764Z,607.00
2024-03-15T05:47:52.933Z,602.00
2024-03-15T05:48:52.845Z,606.00
2024-03-15T05:49:52.801Z,607.00
2024-03-15T05:50:52.831Z,602.00
2024-03-15T05:51:52.888Z,607.00
2024-03-15T05:52:52.865Z,605.00
2024-03-15T05:53:52.888Z,605.00
2024-03-15T05:54:52.961Z,607.00
2024-03-15T05:55:52.928Z,606.00
2024-03-15T05:56:52.942Z,607.00
2024-03-15T05:57:53.054Z,604.00
2024-03-15T05:58:52.977Z,604.00
2024-03-15T05:59:52.983Z,605.00
2024-03-15T06:00:53.152Z,605.00
2024-03-15T06:01:53.062Z,603.00
2024-03-15T06:02:53.155Z,608.00
2024-03-15T06:03:53.077Z,606.00
2024-03-15T06:04:53.042Z,605.00
2024-03-15T06:05:53.044Z,604.00
2024-03-15T06:06:53.126Z,603.00
2024-03-15T06:07:54.060Z,603.00
2024-03-15T06:08:53.105Z,603.00
2024-03-15T06:09:53.122Z,602.00
2024-03-15T06:10:53.098Z,604.00
2024-03-15T06:11:53.159Z,604.00
2024-03-15T06:12:53.121Z,604.00
2024-03-15T06:13:53.139Z,603.00
2024-03-15T06:14:53.187Z,603.00
2024-03-15T06:15:53.156Z,612.00
2024-03-15T06:16:53.203Z,602.00
2024-03-15T06:17:53.217Z,604.00
2024-03-15T06:18:53.285Z,605.00
2024-03-15T06:19:53.202Z,606.00
2024-03-15T06:20:54.394Z,607.00
2024-03-15T06:21:53.385Z,607.00
2024-03-15T06:22:53.257Z,606.00
2024-03-15T06:23:53.235Z,606.00
2024-03-15T06:24:53.359Z,605.00
2024-03-15T06:25:53.257Z,604.00
2024-03-15T06:26:57.041Z,606.00
2024-03-15T06:27:53.404Z,606.00
2024-03-15T06:28:53.362Z,604.00
2024-03-15T06:29:53.350Z,605.00
2024-03-15T06:30:53.381Z,606.00
2024-03-15T06:31:53.300Z,602.00
2024-03-15T06:32:53.751Z,601.00
2024-03-15T06:33:53.378Z,606.00
2024-03-15T06:34:53.288Z,600.00
2024-03-15T06:35:53.317Z,603.00
2024-03-15T06:36:53.357Z,600.00
2024-03-15T06:37:53.307Z,603.00
2024-03-15T06:38:53.296Z,606.00
2024-03-15T06:39:53.425Z,613.00
2024-03-15T07:45:38.711Z,600.00
2024-03-15T07:46:38.745Z,600.00
2024-03-15T07:47:38.697Z,600.00
2024-03-15T07:48:38.693Z,600.00
2024-03-15T07:49:38.688Z,600.00
2024-03-15T07:50:39.977Z,575.00
2024-03-15T07:51:38.801Z,525.00
2024-03-15T07:52:38.697Z,484.00
2024-03-15T07:53:38.790Z,454.00
2024-03-15T07:54:38.804Z,432.00
2024-03-15T07:55:38.695Z,406.00
2024-03-15T07:56:38.762Z,425.00
2024-03-15T07:57:38.751Z,447.00
2024-03-15T07:58:38.699Z,468.00
2024-03-15T07:59:38.722Z,493.00
2024-03-15T08:09:26.949Z,600.00
2024-03-15T08:10:26.935Z,600.00
2024-03-15T08:11:26.912Z,600.00
2024-03-15T08:12:26.980Z,600.00
2024-03-15T08:13:27.112Z,600.00
2024-03-15T08:14:26.874Z,597.00
2024-03-15T08:15:26.959Z,600.00
2024-03-15T08:16:26.882Z,600.00
2024-03-15T08:17:26.919Z,600.00
2024-03-15T08:18:27.061Z,601.00
2024-03-15T08:19:26.933Z,600.00
2024-03-15T08:20:26.897Z,602.00
2024-03-15T08:21:26.948Z,602.00
2024-03-15T08:22:26.963Z,600.00
2024-03-15T08:23:26.952Z,600.00
2024-03-15T08:24:26.966Z,601.00
2024-03-15T08:25:26.889Z,603.00
2024-03-15T08:26:26.905Z,601.00
2024-03-15T08:27:26.954Z,601.00
2024-03-15T08:28:27.060Z,600.00
